createdAt,value
2017-09-07T00:02:01.617Z,15.80
2017-09-07T00:04:32.525Z,15.80
2017-09-07T00:07:01.797Z,15.70
2017-09-07T00:09:33.624Z,15.70
2017-09-07T00:12:03.053Z,15.70
2017-09-07T00:14:32.419Z,15.70
2017-09-07T00:17:04.275Z,15.70
2017-09-07T00:19:34.253Z,15.60
2017-09-07T00:22:03.471Z,15.60
2017-09-07T00:24:32.862Z,15.60
2017-09-07T00:27:02.599Z,15.60
2017-09-07T00:29:37.603Z,15.60
2017-09-07T00:32:07.063Z,15.50
2017-09-07T00:34:37.839Z,15.60
2017-09-07T00:37:07.358Z,15.60
2017-09-07T00:39:36.848Z,15.60
2017-09-07T00:42:06.594Z,15.60
2017-09-07T00:44:36.106Z,15.60
2017-09-07T00:47:06.565Z,15.60
2017-09-07T00:49:36.855Z,15.60
2017-09-07T00:52:07.479Z,15.60
2017-09-07T00:54:38.169Z,15.50
2017-09-07T00:57:08.968Z,15.50
2017-09-07T00:59:39.489Z,15.60
2017-09-07T01:02:11.216Z,15.60
2017-09-07T01:04:44.505Z,15.60
2017-09-07T01:07:14.104Z,15.60
2017-09-07T01:09:43.468Z,15.70
2017-09-07T01:12:13.959Z,15.70
2017-09-07T01:14:43.183Z,15.70
2017-09-07T01:17:14.417Z,15.70
2017-09-07T01:19:43.799Z,15.70
2017-09-07T01:22:13.616Z,15.70
2017-09-07T01:24:44.336Z,15.60
2017-09-07T01:27:13.943Z,15.60
2017-09-07T01:29:43.799Z,15.60
2017-09-07T01:32:13.838Z,15.60
2017-09-07T01:34:44.248Z,15.60
2017-09-07T01:37:14.490Z,15.70
2017-09-07T01:39:45.315Z,15.60
2017-09-07T01:42:14.672Z,15.60
2017-09-07T01:44:43.996Z,15.60
2017-09-07T01:47:14.409Z,15.60
2017-09-07T01:49:44.313Z,15.50
2017-09-07T01:52:13.514Z,15.50
2017-09-07T01:54:42.846Z,15.50
2017-09-07T01:57:12.918Z,15.40
2017-09-07T01:59:42.267Z,15.30
2017-09-07T02:02:12.356Z,15.40
2017-09-07T02:04:41.730Z,15.30
2017-09-07T02:07:10.965Z,15.30
2017-09-07T02:09:40.179Z,15.40
2017-09-07T02:12:09.362Z,15.30
2017-09-07T02:14:38.706Z,15.30
2017-09-07T02:17:08.495Z,15.30
2017-09-07T02:19:38.466Z,15.30
2017-09-07T02:22:07.615Z,15.30
2017-09-07T02:24:37.691Z,15.30
2017-09-07T02:27:06.914Z,15.30
2017-09-07T02:29:36.871Z,15.30
2017-09-07T02:32:06.244Z,15.30
2017-09-07T02:34:35.455Z,15.30
2017-09-07T02:37:05.435Z,15.30
2017-09-07T02:39:34.718Z,15.30
2017-09-07T02:42:04.365Z,15.30
2017-09-07T02:44:34.327Z,15.30
2017-09-07T02:47:03.491Z,15.30
2017-09-07T02:49:33.388Z,15.30
2017-09-07T02:52:03.497Z,15.30
2017-09-07T02:54:32.730Z,15.30
2017-09-07T02:57:02.734Z,15.20
2017-09-07T02:59:33.250Z,15.20
2017-09-07T03:02:02.494Z,15.20
2017-09-07T03:04:31.719Z,15.20
2017-09-07T03:07:01.290Z,15.20
2017-09-07T03:09:31.292Z,15.20
2017-09-07T03:12:00.591Z,15.20
2017-09-07T03:14:30.651Z,15.20
2017-09-07T03:17:00.287Z,15.20
2017-09-07T03:19:29.479Z,15.20
2017-09-07T03:21:58.656Z,15.20
2017-09-07T03:24:27.882Z,15.20
2017-09-07T03:26:57.174Z,15.20
2017-09-07T03:29:26.355Z,15.10
2017-09-07T03:31:55.545Z,15.10
2017-09-07T03:34:25.595Z,15.20
2017-09-07T03:36:54.965Z,15.00
2017-09-07T03:39:25.109Z,15.10
2017-09-07T03:41:54.703Z,15.10
2017-09-07T03:44:23.903Z,15.10
2017-09-07T03:46:53.207Z,15.20
2017-09-07T03:49:22.478Z,15.10
2017-09-07T03:51:51.707Z,15.20
2017-09-07T03:54:21.411Z,15.10
2017-09-07T03:56:50.657Z,15.00
2017-09-07T03:59:20.635Z,15.10
2017-09-07T04:01:50.752Z,15.10
2017-09-07T04:04:20.068Z,15.10
2017-09-07T04:06:49.521Z,15.10
2017-09-07T04:09:18.883Z,15.10
2017-09-07T04:11:48.935Z,15.00
2017-09-07T04:14:18.219Z,15.00
2017-09-07T04:16:47.408Z,15.00
2017-09-07T04:19:16.698Z,15.00
2017-09-07T04:21:46.701Z,15.00
2017-09-07T04:24:16.080Z,15.00
2017-09-07T04:26:45.595Z,15.00
2017-09-07T04:29:14.972Z,15.10
2017-09-07T04:31:44.319Z,15.10
2017-09-07T04:34:13.651Z,15.00
2017-09-07T04:36:43.506Z,15.10
2017-09-07T04:39:12.936Z,15.10
2017-09-07T04:41:43.594Z,15.10
2017-09-07T04:44:13.683Z,15.00
2017-09-07T04:46:42.943Z,15.00
2017-09-07T04:49:12.151Z,15.10
2017-09-07T04:51:41.705Z,15.00
2017-09-07T04:54:11.249Z,15.00
2017-09-07T04:56:40.540Z,15.10
2017-09-07T04:59:10.229Z,15.00
2017-09-07T05:01:40.367Z,15.00
2017-09-07T05:04:09.880Z,15.00
2017-09-07T05:06:39.131Z,15.00
2017-09-07T05:09:08.927Z,15.00
2017-09-07T05:11:38.202Z,15.00
2017-09-07T05:14:07.660Z,15.00
2017-09-07T05:16:38.169Z,15.00
2017-09-07T05:19:07.527Z,15.00
2017-09-07T05:21:38.166Z,15.10
2017-09-07T05:24:07.502Z,15.10
2017-09-07T05:26:40.504Z,15.10
2017-09-07T05:29:10.054Z,15.10
2017-09-07T05:31:39.340Z,15.10
2017-09-07T05:34:09.120Z,15.10
2017-09-07T05:36:39.272Z,15.20
2017-09-07T05:39:09.248Z,15.20
2017-09-07T05:41:39.501Z,15.20
2017-09-07T05:44:10.363Z,15.20
2017-09-07T05:46:40.054Z,15.20
2017-09-07T05:49:09.566Z,15.20
2017-09-07T05:51:38.844Z,15.20
2017-09-07T05:54:08.865Z,15.30
2017-09-07T05:56:39.322Z,15.30
2017-09-07T05:59:08.908Z,15.20
2017-09-07T06:01:38.967Z,15.30
2017-09-07T06:04:08.233Z,15.20
2017-09-07T06:06:37.727Z,15.20
2017-09-07T06:09:06.972Z,15.20
2017-09-07T06:11:36.451Z,15.30
2017-09-07T06:14:05.853Z,15.30
2017-09-07T06:16:35.373Z,15.50
2017-09-07T06:19:04.730Z,15.60
2017-09-07T06:21:34.754Z,15.60
2017-09-07T06:24:03.994Z,15.60
2017-09-07T06:26:33.246Z,15.60
2017-09-07T06:29:02.501Z,15.60
2017-09-07T06:31:32.225Z,15.60
2017-09-07T06:34:01.675Z,15.70
2017-09-07T06:36:31.810Z,15.80
2017-09-07T06:39:01.184Z,15.80
2017-09-07T06:41:31.274Z,15.90
2017-09-07T06:44:00.572Z,15.90
2017-09-07T06:46:30.308Z,16.00
2017-09-07T06:49:00.573Z,16.10
2017-09-07T06:51:30.912Z,16.20
2017-09-07T06:54:00.284Z,16.20
2017-09-07T06:56:29.608Z,16.20
2017-09-07T06:59:00.011Z,16.30
2017-09-07T07:01:29.503Z,16.20
2017-09-07T07:03:58.966Z,16.30
2017-09-07T07:06:29.031Z,16.40
2017-09-07T07:08:59.335Z,16.30
2017-09-07T07:11:28.755Z,16.30
2017-09-07T07:13:59.055Z,16.30
2017-09-07T07:16:29.210Z,16.20
2017-09-07T07:18:58.807Z,16.20
2017-09-07T07:21:28.905Z,16.30
2017-09-07T07:23:58.291Z,16.20
2017-09-07T07:26:27.979Z,16.30
2017-09-07T07:28:57.615Z,16.40
2017-09-07T07:31:27.910Z,16.60
2017-09-07T07:33:57.148Z,16.60
2017-09-07T07:36:26.448Z,16.60
2017-09-07T07:38:56.195Z,16.50
2017-09-07T07:41:25.611Z,16.50
2017-09-07T07:43:54.895Z,16.70
2017-09-07T07:46:24.152Z,16.80
2017-09-07T07:48:53.628Z,16.80
2017-09-07T07:51:23.743Z,16.80
2017-09-07T07:53:53.218Z,16.90
2017-09-07T07:56:23.285Z,17.30
2017-09-07T07:58:53.431Z,17.40
2017-09-07T08:01:23.127Z,17.40
2017-09-07T08:03:52.772Z,17.40
2017-09-07T08:06:23.119Z,17.30
2017-09-07T08:08:52.906Z,17.20
2017-09-07T08:11:23.047Z,17.10
2017-09-07T08:13:52.357Z,17.10
2017-09-07T08:16:22.068Z,17.30
2017-09-07T08:18:51.403Z,17.30
2017-09-07T08:21:20.868Z,17.30
2017-09-07T08:23:50.317Z,17.40
2017-09-07T08:26:19.811Z,17.50
2017-09-07T08:28:50.286Z,17.70
2017-09-07T08:31:19.975Z,17.90
2017-09-07T08:33:50.119Z,17.80
2017-09-07T08:36:19.811Z,17.80
2017-09-07T08:38:50.027Z,17.70
2017-09-07T08:41:19.626Z,17.60
2017-09-07T08:43:49.822Z,17.60
2017-09-07T08:46:19.112Z,17.50
2017-09-07T08:48:48.424Z,17.20
2017-09-07T08:51:17.959Z,17.30
2017-09-07T08:53:47.628Z,17.40
2017-09-07T08:56:17.006Z,17.30
2017-09-07T08:58:46.999Z,17.20
2017-09-07T09:01:17.164Z,17.30
2017-09-07T09:03:46.545Z,17.30
2017-09-07T09:06:15.746Z,17.40
2017-09-07T09:08:45.643Z,17.20
2017-09-07T09:11:15.999Z,17.50
2017-09-07T09:13:47.259Z,18.00
2017-09-07T09:16:17.098Z,17.90
2017-09-07T09:18:48.111Z,18.70
2017-09-07T09:21:42.635Z,18.70
2017-09-07T09:24:12.627Z,18.80
2017-09-07T09:26:43.153Z,18.70
2017-09-07T09:29:13.306Z,18.50
2017-09-07T09:31:43.406Z,18.60
2017-09-07T09:34:12.766Z,18.80
2017-09-07T09:36:42.556Z,18.80
2017-09-07T09:39:13.632Z,18.70
2017-09-07T09:41:42.944Z,18.70
2017-09-07T09:44:12.311Z,18.90
2017-09-07T09:46:42.536Z,18.90
2017-09-07T09:49:12.162Z,18.80
2017-09-07T09:51:41.697Z,19.00
2017-09-07T09:54:11.097Z,19.10
2017-09-07T09:56:40.467Z,19.00
2017-09-07T09:59:09.843Z,18.80
2017-09-07T10:01:40.268Z,18.40
2017-09-07T10:04:10.715Z,18.60
2017-09-07T10:06:39.941Z,18.60
2017-09-07T10:09:09.398Z,18.50
2017-09-07T10:11:40.565Z,20.70
2017-09-07T10:14:09.959Z,20.70
2017-09-07T10:16:39.979Z,22.60
2017-09-07T10:19:09.270Z,23.30
2017-09-07T10:21:39.142Z,23.50
2017-09-07T10:24:14.706Z,22.90
2017-09-07T10:26:44.133Z,22.00
2017-09-07T10:29:13.995Z,22.20
2017-09-07T10:31:43.469Z,22.20
2017-09-07T10:34:12.810Z,22.30
2017-09-07T10:36:42.217Z,22.30
2017-09-07T10:39:11.636Z,22.80
2017-09-07T10:41:41.075Z,22.50
2017-09-07T10:44:10.591Z,22.70
2017-09-07T10:46:40.083Z,23.70
2017-09-07T10:49:09.746Z,22.90
2017-09-07T10:51:39.444Z,22.10
2017-09-07T10:54:08.807Z,21.60
2017-09-07T10:56:38.941Z,21.00
2017-09-07T10:59:08.762Z,21.00
2017-09-07T11:01:38.041Z,20.30
2017-09-07T11:04:07.396Z,20.30
2017-09-07T11:06:36.645Z,20.80
2017-09-07T11:09:06.349Z,20.90
2017-09-07T11:11:36.086Z,20.60
2017-09-07T11:14:05.452Z,20.00
2017-09-07T11:16:34.844Z,20.10
2017-09-07T11:19:04.973Z,21.70
2017-09-07T11:21:34.627Z,21.70
2017-09-07T11:24:04.203Z,22.70
2017-09-07T11:26:34.084Z,23.10
2017-09-07T11:29:04.290Z,23.20
2017-09-07T11:31:33.796Z,23.20
2017-09-07T11:34:03.166Z,22.70
2017-09-07T11:36:33.032Z,22.30
2017-09-07T11:39:07.243Z,21.30
2017-09-07T11:41:47.900Z,21.20
2017-09-07T11:44:19.684Z,20.90
2017-09-07T11:46:49.808Z,20.60
2017-09-07T11:49:20.129Z,20.00
2017-09-07T11:51:50.453Z,20.00
2017-09-07T11:54:19.993Z,20.00
2017-09-07T11:56:49.869Z,20.20
2017-09-07T11:59:20.208Z,21.30
2017-09-07T12:01:50.896Z,21.80
2017-09-07T12:04:22.315Z,22.10
2017-09-07T12:06:57.244Z,22.00
2017-09-07T12:09:26.918Z,22.30
2017-09-07T12:11:57.393Z,21.90
2017-09-07T12:14:26.840Z,21.80
2017-09-07T12:16:57.103Z,21.70
2017-09-07T12:19:26.655Z,21.40
2017-09-07T12:22:24.157Z,21.40
2017-09-07T12:25:39.805Z,21.50
2017-09-07T12:28:10.046Z,21.40
2017-09-07T12:30:39.883Z,20.90
2017-09-07T12:33:10.398Z,21.10
2017-09-07T12:35:39.803Z,21.10
2017-09-07T12:38:09.902Z,20.70
2017-09-07T12:40:40.178Z,20.20
2017-09-07T12:43:09.938Z,20.30
2017-09-07T12:45:39.372Z,20.10
2017-09-07T12:48:10.145Z,20.30
2017-09-07T12:50:39.383Z,20.30
2017-09-07T12:53:10.567Z,22.00
2017-09-07T12:55:41.198Z,22.10
2017-09-07T12:58:10.907Z,22.10
2017-09-07T13:00:42.135Z,22.30
2017-09-07T13:03:12.046Z,22.30
2017-09-07T13:05:41.783Z,24.20
2017-09-07T13:08:12.941Z,24.80
2017-09-07T13:10:42.528Z,24.90
2017-09-07T13:13:11.935Z,24.50
2017-09-07T13:15:41.628Z,24.10
2017-09-07T13:18:11.142Z,24.50
2017-09-07T13:20:41.774Z,25.30
2017-09-07T13:23:15.898Z,25.00
2017-09-07T13:25:46.713Z,24.30
2017-09-07T13:28:17.493Z,23.30
2017-09-07T13:30:47.259Z,23.20
2017-09-07T13:33:17.483Z,22.90
2017-09-07T13:35:47.984Z,22.40
2017-09-07T13:38:17.824Z,22.40
2017-09-07T13:40:47.535Z,22.00
2017-09-07T13:43:17.957Z,22.60
2017-09-07T13:45:48.507Z,22.80
2017-09-07T13:48:19.113Z,22.50
2017-09-07T13:50:48.849Z,22.40
2017-09-07T13:53:19.358Z,21.40
2017-09-07T13:56:33.770Z,21.40
2017-09-07T13:59:04.642Z,20.80
2017-09-07T14:01:34.522Z,20.80
2017-09-07T14:04:05.317Z,20.70
2017-09-07T14:06:35.727Z,20.60
2017-09-07T14:09:05.947Z,20.50
2017-09-07T14:11:36.630Z,20.20
2017-09-07T14:14:06.200Z,20.20
2017-09-07T14:16:36.557Z,20.30
2017-09-07T14:19:07.238Z,20.10
2017-09-07T14:21:36.881Z,20.10
2017-09-07T14:24:06.604Z,20.10
2017-09-07T14:26:36.739Z,20.10
2017-09-07T14:29:08.061Z,20.00
2017-09-07T14:31:38.144Z,20.00
2017-09-07T14:34:07.828Z,20.20
2017-09-07T14:36:38.843Z,20.30
2017-09-07T14:39:08.558Z,20.20
2017-09-07T14:41:38.784Z,20.30
2017-09-07T14:44:08.998Z,20.20
2017-09-07T14:46:39.317Z,20.00
2017-09-07T14:49:09.542Z,19.70
2017-09-07T14:51:39.908Z,19.60
2017-09-07T14:54:09.546Z,19.60
2017-09-07T14:56:39.003Z,19.70
2017-09-07T14:59:10.960Z,19.60
2017-09-07T15:01:40.623Z,19.60
2017-09-07T15:04:12.765Z,19.50
2017-09-07T15:06:42.602Z,19.50
2017-09-07T15:09:13.603Z,19.00
2017-09-07T15:11:42.959Z,18.90
2017-09-07T15:14:12.374Z,18.70
2017-09-07T15:16:42.876Z,18.80
2017-09-07T15:19:53.086Z,18.80
2017-09-07T15:22:23.324Z,18.70
2017-09-07T15:24:52.921Z,18.80
2017-09-07T15:27:22.583Z,18.80
2017-09-07T15:29:55.596Z,18.70
2017-09-07T15:32:25.507Z,18.70
2017-09-07T15:34:58.404Z,18.80
2017-09-07T15:37:29.352Z,18.90
2017-09-07T15:42:35.651Z,19.20
2017-09-07T15:45:05.288Z,19.20
2017-09-07T15:47:36.140Z,19.20
2017-09-07T15:50:05.759Z,19.20
2017-09-07T15:52:35.667Z,19.20
2017-09-07T15:55:05.208Z,19.20
2017-09-07T15:57:35.043Z,19.10
2017-09-07T16:00:05.614Z,19.20
2017-09-07T16:02:35.449Z,19.20
2017-09-07T16:05:04.907Z,19.20
2017-09-07T16:07:35.556Z,19.00
2017-09-07T16:10:05.676Z,19.00
2017-09-07T16:12:35.200Z,19.10
2017-09-07T16:15:05.305Z,19.00
2017-09-07T16:17:35.017Z,18.90
2017-09-07T16:20:06.826Z,18.90
2017-09-07T16:23:09.232Z,18.90
2017-09-07T16:25:43.829Z,18.80
2017-09-07T16:28:14.722Z,18.80
2017-09-07T16:30:46.922Z,18.70
2017-09-07T16:33:17.419Z,18.60
2017-09-07T16:38:38.451Z,18.60
2017-09-07T16:41:09.770Z,18.50
2017-09-07T16:43:49.820Z,18.50
2017-09-07T16:46:21.411Z,18.50
2017-09-07T16:52:13.248Z,18.50
2017-09-07T16:54:45.089Z,18.50
2017-09-07T16:57:15.243Z,18.40
2017-09-07T16:59:50.912Z,18.40
2017-09-07T17:02:21.895Z,18.40
2017-09-07T17:04:59.351Z,18.30
2017-09-07T17:07:29.404Z,18.30
2017-09-07T17:09:59.312Z,18.40
2017-09-07T17:12:30.928Z,18.30
2017-09-07T17:15:01.123Z,18.20
2017-09-07T17:17:33.107Z,18.30
2017-09-07T17:20:05.308Z,18.20
2017-09-07T17:22:35.951Z,18.20
2017-09-07T17:25:21.025Z,18.20
2017-09-07T17:27:51.685Z,18.20
2017-09-07T17:30:22.060Z,18.20
2017-09-07T17:32:51.739Z,18.20
2017-09-07T17:35:22.453Z,18.30
2017-09-07T17:37:54.303Z,18.30
2017-09-07T17:40:27.111Z,18.30
2017-09-07T17:43:04.898Z,18.30
2017-09-07T17:48:45.393Z,18.20
2017-09-07T17:51:15.406Z,18.10
2017-09-07T17:53:46.054Z,18.10
2017-09-07T17:56:23.771Z,18.10
2017-09-07T17:58:54.781Z,18.20
2017-09-07T18:01:26.108Z,18.20
2017-09-07T18:04:08.450Z,18.20
2017-09-07T18:06:39.688Z,18.10
2017-09-07T18:09:11.664Z,18.10
2017-09-07T18:11:45.332Z,18.10
2017-09-07T18:14:15.498Z,18.10
2017-09-07T18:16:47.305Z,18.10
2017-09-07T18:19:17.548Z,18.10
2017-09-07T18:21:47.753Z,18.10
2017-09-07T18:24:17.381Z,18.10
2017-09-07T18:26:47.867Z,18.20
2017-09-07T18:29:19.142Z,18.10
2017-09-07T19:11:27.526Z,17.60
2017-09-07T19:13:58.152Z,17.60
2017-09-07T19:16:28.429Z,17.50
2017-09-07T19:18:59.640Z,17.50
2017-09-07T19:21:29.473Z,17.50
2017-09-07T19:23:59.180Z,17.50
2017-09-07T19:26:29.409Z,17.50
2017-09-07T19:28:59.519Z,17.50
2017-09-07T19:31:29.576Z,17.50
2017-09-07T19:33:59.149Z,17.50
2017-09-07T19:36:30.237Z,17.50
2017-09-07T19:39:01.278Z,17.40
2017-09-07T19:41:31.165Z,17.40
2017-09-07T19:44:01.109Z,17.40
2017-09-07T19:46:30.774Z,17.50
2017-09-07T19:49:00.281Z,17.40
2017-09-07T19:51:30.314Z,17.40
2017-09-07T19:54:00.050Z,17.30
2017-09-07T19:56:29.583Z,17.40
2017-09-07T19:58:59.591Z,17.30
2017-09-07T20:01:30.720Z,17.30
2017-09-07T20:04:02.889Z,17.20
2017-09-07T20:06:32.623Z,17.30
2017-09-07T20:09:04.821Z,17.30
2017-09-07T20:11:34.448Z,17.30
2017-09-07T20:14:11.125Z,17.20
2017-09-07T20:16:41.721Z,17.40
2017-09-07T20:19:11.669Z,17.40
2017-09-07T20:21:42.194Z,17.40
2017-09-07T20:24:12.632Z,17.30
2017-09-07T20:26:42.539Z,17.30
2017-09-07T20:29:30.768Z,17.40
2017-09-07T20:32:02.396Z,17.40
2017-09-07T20:34:33.584Z,17.40
2017-09-07T20:37:05.034Z,17.40
2017-09-07T20:39:34.634Z,17.40
2017-09-07T20:42:04.995Z,17.40
2017-09-07T20:44:35.084Z,17.40
2017-09-07T20:47:04.789Z,17.40
2017-09-07T20:49:41.467Z,17.40
2017-09-07T20:52:48.923Z,17.30
2017-09-07T20:55:19.635Z,17.40
2017-09-07T20:57:49.060Z,17.40
2017-09-07T21:00:23.158Z,17.40
2017-09-07T21:02:53.138Z,17.40
2017-09-07T21:05:27.926Z,17.40
2017-09-07T21:07:57.417Z,17.30
2017-09-07T21:10:27.644Z,17.40
2017-09-07T21:13:00.165Z,17.30
2017-09-07T21:15:40.717Z,17.20
2017-09-07T21:18:23.255Z,17.10
2017-09-07T21:20:52.780Z,17.10
2017-09-07T21:23:24.173Z,17.00
2017-09-07T21:26:24.519Z,17.00
2017-09-07T21:28:55.097Z,17.00
2017-09-07T21:31:25.263Z,17.00
2017-09-07T21:33:57.685Z,17.00
2017-09-07T21:36:28.251Z,17.00
2017-09-07T21:38:58.434Z,16.90
2017-09-07T21:41:27.914Z,16.90
2017-09-07T21:44:02.540Z,16.80
2017-09-07T21:46:33.966Z,16.80
2017-09-07T21:49:04.991Z,16.90
2017-09-07T21:51:35.890Z,16.90
2017-09-07T21:54:06.048Z,16.90
2017-09-07T21:56:35.784Z,16.80
2017-09-07T21:59:07.276Z,16.80
2017-09-07T22:01:36.672Z,16.70
2017-09-07T22:04:06.179Z,16.80
2017-09-07T22:06:36.698Z,16.80
2017-09-07T22:09:14.498Z,16.80
2017-09-07T22:11:45.235Z,16.90
2017-09-07T22:14:18.721Z,16.90
2017-09-07T22:16:48.325Z,17.00
2017-09-07T22:22:35.111Z,17.00
2017-09-07T22:25:08.894Z,17.10
2017-09-07T22:27:39.399Z,17.20
2017-09-07T22:30:09.254Z,17.20
2017-09-07T22:32:42.972Z,17.20
2017-09-07T22:35:12.936Z,17.20
2017-09-07T22:37:43.774Z,17.20
2017-09-07T22:40:15.684Z,17.20
2017-09-07T22:42:46.423Z,17.20
2017-09-07T22:45:17.304Z,17.10
2017-09-07T22:47:50.562Z,17.00
2017-09-07T22:50:22.264Z,17.00
2017-09-07T22:52:52.962Z,17.00
2017-09-07T22:55:26.438Z,16.90
2017-09-07T22:57:58.190Z,16.90
2017-09-07T23:00:29.703Z,16.90
2017-09-07T23:03:01.015Z,16.90
2017-09-07T23:05:32.878Z,16.80
2017-09-07T23:08:06.251Z,16.80
2017-09-07T23:10:39.537Z,16.80
2017-09-07T23:13:10.358Z,16.80
2017-09-07T23:15:40.950Z,16.70
2017-09-07T23:18:11.436Z,16.60
2017-09-07T23:20:41.159Z,16.60
2017-09-07T23:23:11.666Z,16.60
2017-09-07T23:25:42.304Z,16.60
2017-09-07T23:28:12.971Z,16.60
2017-09-07T23:30:43.025Z,16.60
2017-09-07T23:33:12.820Z,16.60
2017-09-07T23:35:42.995Z,16.60
2017-09-07T23:38:12.335Z,16.60
2017-09-07T23:40:42.076Z,16.60
2017-09-07T23:43:11.432Z,16.60
2017-09-07T23:45:40.725Z,16.60
2017-09-07T23:48:10.437Z,16.50
2017-09-07T23:50:39.618Z,16.50
2017-09-07T23:53:09.574Z,16.50
2017-09-07T23:55:39.774Z,16.60
2017-09-07T23:58:09.193Z,16.60
